Kandilousa — SYIF — position and weather

sailwx.info

Track history (hours):
 
Tides and Currents Weather Stations Pressure Air Temp Water Temp Dewpoint Dewpoint Depression Visibility Wind Speed Wind Dir Waves Ship Positions

Kandilousa

Last reported at 2015-Apr-26 16:13 UTC. Time now 2015-May-06 08:26 UTC.
Position N 01°16' E 104°09'.
Warning: this ship's position is 9 days out of date.

Length 183 m; draft 8 m.

Type: Tanker. MMSI: 239354000.

Date/timePositionNaut miles runAvg speedWind from/ knotsBaromVisibWave heightAir tempDewpointWater temp
2015-Apr-26 16:13N 01°16' E 104°09'811.8
2015-Apr-26 15:32N 01°15' E 104°01'6 4.3
2015-Apr-26 14:13N 01°15' E 103°55'0 0.0
2015-Apr-26 13:33N 01°15' E 103°55'0 0.0
2015-Apr-26 12:33N 01°15' E 103°55'0 0.0
2015-Apr-26 11:33N 01°15' E 103°55'0 0.0
2015-Apr-26 10:32N 01°15' E 103°55'0 0.0
2015-Apr-26 09:33N 01°15' E 103°55'0 0.0
2015-Apr-26 08:33N 01°15' E 103°55'0 0.0
2015-Apr-26 07:33N 01°15' E 103°55'0 0.2
2015-Apr-26 06:33N 01°15' E 103°55'0 0.1
2015-Apr-26 05:33N 01°15' E 103°56'0 0.0
2015-Apr-26 04:32N 01°15' E 103°56'0 0.0
2015-Apr-26 03:26N 01°15' E 103°56'0 0.0
2015-Apr-26 02:33N 01°15' E 103°56'0 0.0
2015-Apr-26 01:31N 01°15' E 103°56'0 0.0
2015-Apr-26 00:33N 01°15' E 103°56'0 0.0
2015-Apr-25 23:29N 01°15' E 103°56'0 0.0
2015-Apr-25 22:33N 01°15' E 103°56'0 0.1
2015-Apr-25 21:33N 01°15' E 103°55'0 0.0
2015-Apr-25 20:33N 01°15' E 103°55'0 0.1
2015-Apr-25 19:33N 01°15' E 103°56'0 0.1
2015-Apr-25 18:33N 01°15' E 103°55'0 0.0
2015-Apr-25 17:32N 01°15' E 103°55'0 0.1
2015-Apr-25 16:28N 01°15' E 103°55'0 0.0
2015-Apr-25 15:33N 01°15' E 103°55'0 0.0
2015-Apr-25 14:33N 01°15' E 103°55'0 0.0
2015-Apr-25 13:33N 01°15' E 103°55'0 0.1
2015-Apr-25 12:33N 01°15' E 103°55'0 0.0
2015-Apr-25 11:32N 01°15' E 103°55'0 0.0
2015-Apr-25 10:33N 01°15' E 103°55'0 0.1
2015-Apr-25 09:33N 01°15' E 103°56'0 0.0
2015-Apr-25 08:31N 01°15' E 103°56'0 0.2
2015-Apr-25 07:32N 01°15' E 103°55'0 0.1
2015-Apr-25 06:32N 01°15' E 103°56'0 0.0
2015-Apr-25 05:33N 01°15' E 103°56'0 0.1
2015-Apr-25 04:33N 01°15' E 103°56'0 0.0
2015-Apr-25 03:32N 01°15' E 103°56'0 0.0
2015-Apr-25 02:30N 01°15' E 103°56'0 0.0
2015-Apr-25 01:30N 01°15' E 103°56'0 0.0
2015-Apr-25 00:33N 01°15' E 103°56'4 3.5
2015-Apr-24 23:32N 01°16' E 103°59'7 7.5
2015-Apr-24 22:33N 01°18' E 104°06'8 8.4
2015-Apr-24 21:33N 01°24' E 104°00'1 0.0
2015-Apr-23 21:32N 01°25' E 104°00'8 8.5
2015-Apr-23 20:33N 01°19' E 104°06'1 0.8
2015-Apr-23 19:30N 01°19' E 104°07'0 0.1
2015-Apr-23 18:30N 01°19' E 104°07'0 0.1
2015-Apr-23 17:18N 01°19' E 104°07'0 0.0
2015-Apr-23 16:19N 01°19' E 104°07'0 0.0
2015-Apr-23 15:21N 01°19' E 104°07'0 0.0
2015-Apr-23 14:24N 01°19' E 104°07'0 0.1
2015-Apr-23 13:24N 01°19' E 104°07'0 0.0
2015-Apr-23 11:18N 01°19' E 104°07'0 0.0
2015-Apr-23 10:24N 01°19' E 104°07'0 0.0
2015-Apr-23 09:24N 01°19' E 104°07'0 0.0
2015-Apr-23 08:12N 01°19' E 104°07'0 0.0
2015-Apr-23 07:24N 01°19' E 104°07'0 0.0
2015-Apr-23 03:12N 01°19' E 104°07'0 0.2
2015-Apr-23 02:18N 01°19' E 104°07'0 0.0
2015-Apr-22 23:30N 01°19' E 104°07'0 0.0
2015-Apr-22 21:24N 01°19' E 104°07'0 0.0
2015-Apr-22 20:24N 01°19' E 104°07'0 0.0
2015-Apr-22 19:24N 01°19' E 104°07'0 0.1
2015-Apr-22 18:30N 01°19' E 104°07'0 0.1
2015-Apr-22 17:18N 01°19' E 104°07'0 0.0
2015-Apr-22 15:06N 01°19' E 104°07'0 0.0
2015-Apr-22 14:24N 01°19' E 104°07'0 0.0
2015-Apr-22 13:30N 01°19' E 104°07'0 0.0
2015-Apr-22 11:30N 01°19' E 104°07'0 0.0
2015-Apr-22 10:33N 01°19' E 104°07'0 0.1
2015-Apr-22 09:33N 01°19' E 104°07'0 0.0
2015-Apr-22 07:30N 01°19' E 104°07'0 0.1
2015-Apr-22 06:30N 01°19' E 104°07'0 0.1
2015-Apr-22 05:30N 01°19' E 104°07'0 0.1
2015-Apr-22 04:24N 01°19' E 104°07'0 0.1
2015-Apr-22 03:18N 01°19' E 104°07'0 0.1
2015-Apr-22 01:24N 01°19' E 104°07'0 0.1
2015-Apr-22 00:12N 01°19' E 104°07'0 0.0
2015-Apr-21 23:27N 01°19' E 104°07'0 0.0
2015-Apr-21 21:30N 01°19' E 104°07'0 0.0
2015-Apr-21 19:24N 01°19' E 104°07'0 0.0
2015-Apr-21 17:30N 01°19' E 104°07'0 0.1
2015-Apr-21 16:18N 01°19' E 104°07'0 0.0
2015-Apr-21 15:31N 01°19' E 104°07'0 0.1
2015-Apr-21 14:30N 01°19' E 104°07'0 0.0
2015-Apr-21 13:24N 01°19' E 104°07'0 0.1
2015-Apr-21 12:09N 01°19' E 104°07'0 0.1
2015-Apr-21 11:31N 01°19' E 104°07'0 0.0
2015-Apr-21 10:18N 01°19' E 104°07'0 0.0
2015-Apr-21 09:25N 01°19' E 104°07'0 0.0
2015-Apr-21 05:24N 01°19' E 104°07'0 0.0
2015-Apr-21 04:33N 01°19' E 104°07'0 0.0
2015-Apr-21 03:18N 01°19' E 104°07'0 0.1
2015-Apr-21 02:30N 01°19' E 104°07'0 0.1
2015-Apr-21 00:31N 01°19' E 104°07'0 0.1
2015-Apr-20 23:33N 01°19' E 104°07'0 0.0
2015-Apr-20 22:04N 01°19' E 104°07'0 0.0
2015-Apr-20 21:30N 01°19' E 104°07'0 0.1
2015-Apr-20 20:30N 01°19' E 104°07'0 0.1
2015-Apr-20 19:24N 01°19' E 104°07'0 0.0
2015-Apr-20 18:30N 01°19' E 104°07'0 0.1
2015-Apr-20 16:18N 01°19' E 104°07'0 0.0
2015-Apr-20 14:30N 01°19' E 104°07'0 0.0
2015-Apr-20 13:30N 01°19' E 104°07'0 0.0
2015-Apr-20 11:33N 01°19' E 104°07'0 0.1
2015-Apr-20 10:24N 01°19' E 104°07'3 3.9
2015-Apr-20 09:33N 01°20' E 104°04'6 0.2
2015-Apr-19 07:15N 01°25' E 104°00'6 8.7
2015-Apr-19 06:34N 01°20' E 104°04'2 2.1
2015-Apr-19 05:33N 01°19' E 104°06'0 0.0
2015-Apr-19 03:29N 01°19' E 104°06'0 0.0
2015-Apr-19 02:17N 01°19' E 104°06'0 0.0
2015-Apr-19 01:32N 01°19' E 104°06'0 0.0
2015-Apr-19 00:29N 01°19' E 104°06'0 0.1
2015-Apr-18 23:08N 01°19' E 104°06'0 0.1
2015-Apr-18 22:29N 01°19' E 104°06'0 0.0
2015-Apr-18 21:29N 01°19' E 104°06'0 0.0
2015-Apr-18 20:11N 01°19' E 104°06'0 0.1
2015-Apr-18 19:32N 01°19' E 104°06'0 0.0
2015-Apr-18 18:29N 01°19' E 104°06'0 0.0
2015-Apr-18 17:23N 01°19' E 104°06'0 0.2
2015-Apr-18 16:23N 01°19' E 104°06'0 0.0
2015-Apr-18 13:23N 01°19' E 104°06'0 0.0
2015-Apr-18 10:08N 01°19' E 104°06'0 0.0
2015-Apr-18 09:32N 01°19' E 104°06'0 0.1
2015-Apr-18 08:11N 01°19' E 104°06'0 0.0
2015-Apr-18 05:23N 01°19' E 104°06'0 0.1
2015-Apr-18 04:26N 01°19' E 104°06'0 0.0
2015-Apr-18 03:17N 01°19' E 104°06'0 0.0
2015-Apr-18 02:17N 01°19' E 104°06'0 0.0
2015-Apr-18 00:29N 01°19' E 104°06'0 0.1
2015-Apr-17 22:11N 01°19' E 104°06'0 0.1
2015-Apr-17 21:29N 01°19' E 104°06'0 0.0
2015-Apr-17 20:29N 01°19' E 104°06'0 0.0
2015-Apr-17 18:29N 01°19' E 104°06'0 0.0
2015-Apr-17 16:29N 01°19' E 104°06'0 0.0
2015-Apr-17 13:23N 01°19' E 104°06'0 0.0
2015-Apr-17 11:17N 01°19' E 104°06'0 0.1
2015-Apr-17 10:23N 01°19' E 104°06'0 0.1
2015-Apr-17 09:26N 01°19' E 104°06'0 0.1
2015-Apr-17 08:17N 01°19' E 104°06'0 0.0
2015-Apr-17 06:29N 01°19' E 104°06'0 0.0
2015-Apr-17 05:32N 01°19' E 104°06'0 0.0
2015-Apr-17 04:17N 01°19' E 104°06'0 0.2
2015-Apr-17 03:17N 01°19' E 104°06'0 0.0
2015-Apr-17 01:11N 01°19' E 104°06'0 0.0
2015-Apr-17 00:17N 01°19' E 104°06'0 0.0
2015-Apr-16 22:11N 01°19' E 104°06'0 0.0
2015-Apr-16 21:11N 01°19' E 104°06'0 0.2
2015-Apr-16 20:17N 01°19' E 104°06'0 0.0
2015-Apr-16 19:29N 01°19' E 104°06'0 0.1
2015-Apr-16 18:05N 01°19' E 104°06'0 0.1
2015-Apr-16 17:29N 01°19' E 104°06'  
Track history (hours):
 
Tides and Currents Weather Stations Pressure Air Temp Water Temp Dewpoint Dewpoint Depression Visibility Wind Speed Wind Dir Waves Ship Positions

Kandilousa

Last reported at 2015-Apr-26 16:13 UTC. Time now 2015-May-06 08:26 UTC.
Position N 01°16' E 104°09'.
Warning: this ship's position is 9 days out of date.

Length 183 m; draft 8 m.

Type: Tanker. MMSI: 239354000.

Date/timePositionNaut miles runAvg speedWind from/ knotsBaromVisibWave heightAir tempDewpointWater temp
2015-Apr-26 16:13N 01°16' E 104°09'811.8
2015-Apr-26 15:32N 01°15' E 104°01'6 4.3
2015-Apr-26 14:13N 01°15' E 103°55'0 0.0
2015-Apr-26 13:33N 01°15' E 103°55'0 0.0
2015-Apr-26 12:33N 01°15' E 103°55'0 0.0
2015-Apr-26 11:33N 01°15' E 103°55'0 0.0
2015-Apr-26 10:32N 01°15' E 103°55'0 0.0
2015-Apr-26 09:33N 01°15' E 103°55'0 0.0
2015-Apr-26 08:33N 01°15' E 103°55'0 0.0
2015-Apr-26 07:33N 01°15' E 103°55'0 0.2
2015-Apr-26 06:33N 01°15' E 103°55'0 0.1
2015-Apr-26 05:33N 01°15' E 103°56'0 0.0
2015-Apr-26 04:32N 01°15' E 103°56'0 0.0
2015-Apr-26 03:26N 01°15' E 103°56'0 0.0
2015-Apr-26 02:33N 01°15' E 103°56'0 0.0
2015-Apr-26 01:31N 01°15' E 103°56'0 0.0
2015-Apr-26 00:33N 01°15' E 103°56'0 0.0
2015-Apr-25 23:29N 01°15' E 103°56'0 0.0
2015-Apr-25 22:33N 01°15' E 103°56'0 0.1
2015-Apr-25 21:33N 01°15' E 103°55'0 0.0
2015-Apr-25 20:33N 01°15' E 103°55'0 0.1
2015-Apr-25 19:33N 01°15' E 103°56'0 0.1
2015-Apr-25 18:33N 01°15' E 103°55'0 0.0
2015-Apr-25 17:32N 01°15' E 103°55'0 0.1
2015-Apr-25 16:28N 01°15' E 103°55'0 0.0
2015-Apr-25 15:33N 01°15' E 103°55'0 0.0
2015-Apr-25 14:33N 01°15' E 103°55'0 0.0
2015-Apr-25 13:33N 01°15' E 103°55'0 0.1
2015-Apr-25 12:33N 01°15' E 103°55'0 0.0
2015-Apr-25 11:32N 01°15' E 103°55'0 0.0
2015-Apr-25 10:33N 01°15' E 103°55'0 0.1
2015-Apr-25 09:33N 01°15' E 103°56'0 0.0
2015-Apr-25 08:31N 01°15' E 103°56'0 0.2
2015-Apr-25 07:32N 01°15' E 103°55'0 0.1
2015-Apr-25 06:32N 01°15' E 103°56'0 0.0
2015-Apr-25 05:33N 01°15' E 103°56'0 0.1
2015-Apr-25 04:33N 01°15' E 103°56'0 0.0
2015-Apr-25 03:32N 01°15' E 103°56'0 0.0
2015-Apr-25 02:30N 01°15' E 103°56'0 0.0
2015-Apr-25 01:30N 01°15' E 103°56'0 0.0
2015-Apr-25 00:33N 01°15' E 103°56'4 3.5
2015-Apr-24 23:32N 01°16' E 103°59'7 7.5
2015-Apr-24 22:33N 01°18' E 104°06'8 8.4
2015-Apr-24 21:33N 01°24' E 104°00'1 0.0
2015-Apr-23 21:32N 01°25' E 104°00'8 8.5
2015-Apr-23 20:33N 01°19' E 104°06'1 0.8
2015-Apr-23 19:30N 01°19' E 104°07'0 0.1
2015-Apr-23 18:30N 01°19' E 104°07'0 0.1
2015-Apr-23 17:18N 01°19' E 104°07'0 0.0
2015-Apr-23 16:19N 01°19' E 104°07'0 0.0
2015-Apr-23 15:21N 01°19' E 104°07'0 0.0
2015-Apr-23 14:24N 01°19' E 104°07'0 0.1
2015-Apr-23 13:24N 01°19' E 104°07'0 0.0
2015-Apr-23 11:18N 01°19' E 104°07'0 0.0
2015-Apr-23 10:24N 01°19' E 104°07'0 0.0
2015-Apr-23 09:24N 01°19' E 104°07'0 0.0
2015-Apr-23 08:12N 01°19' E 104°07'0 0.0
2015-Apr-23 07:24N 01°19' E 104°07'0 0.0
2015-Apr-23 03:12N 01°19' E 104°07'0 0.2
2015-Apr-23 02:18N 01°19' E 104°07'0 0.0
2015-Apr-22 23:30N 01°19' E 104°07'0 0.0
2015-Apr-22 21:24N 01°19' E 104°07'0 0.0
2015-Apr-22 20:24N 01°19' E 104°07'0 0.0
2015-Apr-22 19:24N 01°19' E 104°07'0 0.1
2015-Apr-22 18:30N 01°19' E 104°07'0 0.1
2015-Apr-22 17:18N 01°19' E 104°07'0 0.0
2015-Apr-22 15:06N 01°19' E 104°07'0 0.0
2015-Apr-22 14:24N 01°19' E 104°07'0 0.0
2015-Apr-22 13:30N 01°19' E 104°07'0 0.0
2015-Apr-22 11:30N 01°19' E 104°07'0 0.0
2015-Apr-22 10:33N 01°19' E 104°07'0 0.1
2015-Apr-22 09:33N 01°19' E 104°07'0 0.0
2015-Apr-22 07:30N 01°19' E 104°07'0 0.1
2015-Apr-22 06:30N 01°19' E 104°07'0 0.1
2015-Apr-22 05:30N 01°19' E 104°07'0 0.1
2015-Apr-22 04:24N 01°19' E 104°07'0 0.1
2015-Apr-22 03:18N 01°19' E 104°07'0 0.1
2015-Apr-22 01:24N 01°19' E 104°07'0 0.1
2015-Apr-22 00:12N 01°19' E 104°07'0 0.0
2015-Apr-21 23:27N 01°19' E 104°07'0 0.0
2015-Apr-21 21:30N 01°19' E 104°07'0 0.0
2015-Apr-21 19:24N 01°19' E 104°07'0 0.0
2015-Apr-21 17:30N 01°19' E 104°07'0 0.1
2015-Apr-21 16:18N 01°19' E 104°07'0 0.0
2015-Apr-21 15:31N 01°19' E 104°07'0 0.1
2015-Apr-21 14:30N 01°19' E 104°07'0 0.0
2015-Apr-21 13:24N 01°19' E 104°07'0 0.1
2015-Apr-21 12:09N 01°19' E 104°07'0 0.1
2015-Apr-21 11:31N 01°19' E 104°07'0 0.0
2015-Apr-21 10:18N 01°19' E 104°07'0 0.0
2015-Apr-21 09:25N 01°19' E 104°07'0 0.0
2015-Apr-21 05:24N 01°19' E 104°07'0 0.0
2015-Apr-21 04:33N 01°19' E 104°07'0 0.0
2015-Apr-21 03:18N 01°19' E 104°07'0 0.1
2015-Apr-21 02:30N 01°19' E 104°07'0 0.1
2015-Apr-21 00:31N 01°19' E 104°07'0 0.1
2015-Apr-20 23:33N 01°19' E 104°07'0 0.0
2015-Apr-20 22:04N 01°19' E 104°07'0 0.0
2015-Apr-20 21:30N 01°19' E 104°07'0 0.1
2015-Apr-20 20:30N 01°19' E 104°07'0 0.1
2015-Apr-20 19:24N 01°19' E 104°07'0 0.0
2015-Apr-20 18:30N 01°19' E 104°07'0 0.1
2015-Apr-20 16:18N 01°19' E 104°07'0 0.0
2015-Apr-20 14:30N 01°19' E 104°07'0 0.0
2015-Apr-20 13:30N 01°19' E 104°07'0 0.0
2015-Apr-20 11:33N 01°19' E 104°07'0 0.1
2015-Apr-20 10:24N 01°19' E 104°07'3 3.9
2015-Apr-20 09:33N 01°20' E 104°04'6 0.2
2015-Apr-19 07:15N 01°25' E 104°00'6 8.7
2015-Apr-19 06:34N 01°20' E 104°04'2 2.1
2015-Apr-19 05:33N 01°19' E 104°06'0 0.0
2015-Apr-19 03:29N 01°19' E 104°06'0 0.0
2015-Apr-19 02:17N 01°19' E 104°06'0 0.0
2015-Apr-19 01:32N 01°19' E 104°06'0 0.0
2015-Apr-19 00:29N 01°19' E 104°06'0 0.1
2015-Apr-18 23:08N 01°19' E 104°06'0 0.1
2015-Apr-18 22:29N 01°19' E 104°06'0 0.0
2015-Apr-18 21:29N 01°19' E 104°06'0 0.0
2015-Apr-18 20:11N 01°19' E 104°06'0 0.1
2015-Apr-18 19:32N 01°19' E 104°06'0 0.0
2015-Apr-18 18:29N 01°19' E 104°06'0 0.0
2015-Apr-18 17:23N 01°19' E 104°06'0 0.2
2015-Apr-18 16:23N 01°19' E 104°06'0 0.0
2015-Apr-18 13:23N 01°19' E 104°06'0 0.0
2015-Apr-18 10:08N 01°19' E 104°06'0 0.0
2015-Apr-18 09:32N 01°19' E 104°06'0 0.1
2015-Apr-18 08:11N 01°19' E 104°06'0 0.0
2015-Apr-18 05:23N 01°19' E 104°06'0 0.1
2015-Apr-18 04:26N 01°19' E 104°06'0 0.0
2015-Apr-18 03:17N 01°19' E 104°06'0 0.0
2015-Apr-18 02:17N 01°19' E 104°06'0 0.0
2015-Apr-18 00:29N 01°19' E 104°06'0 0.1
2015-Apr-17 22:11N 01°19' E 104°06'0 0.1
2015-Apr-17 21:29N 01°19' E 104°06'0 0.0
2015-Apr-17 20:29N 01°19' E 104°06'0 0.0
2015-Apr-17 18:29N 01°19' E 104°06'0 0.0
2015-Apr-17 16:29N 01°19' E 104°06'0 0.0
2015-Apr-17 13:23N 01°19' E 104°06'0 0.0
2015-Apr-17 11:17N 01°19' E 104°06'0 0.1
2015-Apr-17 10:23N 01°19' E 104°06'0 0.1
2015-Apr-17 09:26N 01°19' E 104°06'0 0.1
2015-Apr-17 08:17N 01°19' E 104°06'0 0.0
2015-Apr-17 06:29N 01°19' E 104°06'0 0.0
2015-Apr-17 05:32N 01°19' E 104°06'0 0.0
2015-Apr-17 04:17N 01°19' E 104°06'0 0.2
2015-Apr-17 03:17N 01°19' E 104°06'0 0.0
2015-Apr-17 01:11N 01°19' E 104°06'0 0.0
2015-Apr-17 00:17N 01°19' E 104°06'0 0.0
2015-Apr-16 22:11N 01°19' E 104°06'0 0.0
2015-Apr-16 21:11N 01°19' E 104°06'0 0.2
2015-Apr-16 20:17N 01°19' E 104°06'0 0.0
2015-Apr-16 19:29N 01°19' E 104°06'0 0.1
2015-Apr-16 18:05N 01°19' E 104°06'0 0.1
2015-Apr-16 17:29N 01°19' E 104°06'  

Dump ship's entire track history